createdAt,value
2022-08-24T00:01:58.557Z,98482.38
2022-08-24T00:04:25.052Z,98487.59
2022-08-24T00:06:52.274Z,98484.75
2022-08-24T00:09:18.649Z,98482.47
2022-08-24T00:11:45.061Z,98483.34
2022-08-24T00:14:12.049Z,98470.94
2022-08-24T00:16:38.441Z,98488.69
2022-08-24T00:19:04.883Z,98476.56
2022-08-24T00:21:31.309Z,98479.25
2022-08-24T00:23:57.714Z,98480.97
2022-08-24T00:26:29.277Z,98488.66
2022-08-24T00:28:56.079Z,98480.72
2022-08-24T00:31:22.484Z,98476.38
2022-08-24T00:33:48.891Z,98484.13
2022-08-24T00:36:15.241Z,98477.75
2022-08-24T00:38:42.375Z,98477.88
2022-08-24T00:41:08.746Z,98485.53
2022-08-24T00:43:35.124Z,98478.28
2022-08-24T00:46:01.629Z,98480.38
2022-08-24T00:48:29.120Z,98479.59
2022-08-24T00:50:59.330Z,98476.41
2022-08-24T00:53:29.124Z,98483.22
2022-08-24T00:55:57.384Z,98472.38
2022-08-24T00:58:25.692Z,98471.66
2022-08-24T01:00:55.097Z,98469.63
2022-08-24T01:03:21.528Z,98474.09
2022-08-24T01:05:48.611Z,98466.47
2022-08-24T01:08:14.953Z,98478.94
2022-08-24T01:10:42.414Z,98471.28
2022-08-24T01:13:09.147Z,98474.91
2022-08-24T01:15:37.502Z,98476.22
2022-08-24T01:18:22.513Z,98474.31
2022-08-24T01:20:54.388Z,98477.56
2022-08-24T01:23:36.228Z,98467.19
2022-08-24T01:26:02.855Z,98470.38
2022-08-24T01:28:30.206Z,98464.03
2022-08-24T01:30:58.655Z,98470.09
2022-08-24T01:33:26.431Z,98472.06
2022-08-24T01:36:00.101Z,98462.88
2022-08-24T01:38:26.455Z,98461.66
2022-08-24T01:40:53.566Z,98467.31
2022-08-24T01:43:19.913Z,98471.34
2022-08-24T01:45:46.265Z,98472.91
2022-08-24T01:48:13.857Z,98476.56
2022-08-24T01:50:40.242Z,98471.72
2022-08-24T01:53:07.235Z,98481.00
2022-08-24T01:55:33.806Z,98476.94
2022-08-24T01:58:00.352Z,98483.38
2022-08-24T02:00:26.814Z,98482.97
2022-08-24T02:02:53.203Z,98488.59
2022-08-24T02:05:19.607Z,98485.00
2022-08-24T02:07:45.962Z,98482.97
2022-08-24T02:10:14.914Z,98492.22
2022-08-24T02:12:41.607Z,98478.97
2022-08-24T02:15:08.674Z,98478.16
2022-08-24T02:17:35.533Z,98477.69
2022-08-24T02:20:02.278Z,98484.88
2022-08-24T02:22:29.006Z,98488.16
2022-08-24T02:24:55.370Z,98481.72
2022-08-24T02:27:22.011Z,98480.13
2022-08-24T02:29:48.366Z,98482.13
2022-08-24T02:32:14.775Z,98480.47
2022-08-24T02:34:41.174Z,98487.69
2022-08-24T02:37:07.533Z,98484.47
2022-08-24T02:39:33.912Z,98485.66
2022-08-24T02:42:00.269Z,98490.09
2022-08-24T02:44:26.876Z,98482.50
2022-08-24T02:46:53.219Z,98485.75
2022-08-24T02:49:21.317Z,98483.72
2022-08-24T02:51:48.273Z,98488.94
2022-08-24T02:54:17.662Z,98486.13
2022-08-24T02:56:44.510Z,98486.09
2022-08-24T02:59:11.503Z,98484.00
2022-08-24T03:01:37.887Z,98494.41
2022-08-24T03:04:04.335Z,98496.03
2022-08-24T03:06:30.681Z,98491.22
2022-08-24T03:08:57.161Z,98494.44
2022-08-24T03:11:27.720Z,98489.63
2022-08-24T03:13:55.394Z,98492.41
2022-08-24T03:16:21.761Z,98493.22
2022-08-24T03:18:48.100Z,98489.63
2022-08-24T03:21:15.055Z,98492.44
2022-08-24T03:23:41.407Z,98491.66
2022-08-24T03:26:07.765Z,98502.91
2022-08-24T03:28:34.122Z,98489.25
2022-08-24T03:31:00.849Z,98486.50
2022-08-24T03:33:27.222Z,98498.16
2022-08-24T03:35:54.621Z,98491.31
2022-08-24T03:38:21.297Z,98489.75
2022-08-24T03:40:47.761Z,98488.56
2022-08-24T03:43:34.357Z,98485.72
2022-08-24T03:46:02.842Z,98490.94
2022-08-24T03:48:29.774Z,98487.75
2022-08-24T03:50:56.323Z,98488.56
2022-08-24T03:53:22.695Z,98484.94
2022-08-24T03:55:49.059Z,98485.34
2022-08-24T03:58:15.408Z,98484.53
2022-08-24T04:00:42.845Z,98483.72
2022-08-24T04:03:12.029Z,98488.16
2022-08-24T04:05:38.714Z,98487.34
2022-08-24T04:08:06.030Z,98490.16
2022-08-24T04:10:32.520Z,98496.63
2022-08-24T04:12:59.811Z,98491.00
2022-08-24T04:15:28.352Z,98493.03
2022-08-24T04:17:54.706Z,98493.81
2022-08-24T04:20:21.259Z,98494.63
2022-08-24T04:22:51.363Z,98480.16
2022-08-24T04:25:22.866Z,98486.97
2022-08-24T04:27:51.176Z,98478.16
2022-08-24T04:30:17.551Z,98481.75
2022-08-24T04:32:43.898Z,98483.38
2022-08-24T04:35:10.573Z,98485.41
2022-08-24T04:37:36.926Z,98484.19
2022-08-24T04:40:03.806Z,98488.56
2022-08-24T04:42:31.589Z,98482.19
2022-08-24T04:44:59.748Z,98492.59
2022-08-24T04:47:26.258Z,98491.41
2022-08-24T04:49:52.656Z,98495.03
2022-08-24T04:52:19.046Z,98494.97
2022-08-24T04:54:45.424Z,98498.94
2022-08-24T04:57:17.285Z,98502.50
2022-08-24T04:59:44.707Z,98508.13
2022-08-24T05:02:11.177Z,98504.91
2022-08-24T05:04:37.565Z,98502.09
2022-08-24T05:07:04.019Z,98514.56
2022-08-24T05:09:30.397Z,98509.72
2022-08-24T05:11:58.080Z,98516.16
2022-08-24T05:14:29.000Z,98512.50
2022-08-24T05:16:55.525Z,98512.84
2022-08-24T05:19:23.182Z,98517.63
2022-08-24T05:21:49.548Z,98517.22
2022-08-24T05:24:16.172Z,98514.34
2022-08-24T05:26:42.523Z,98519.53
2022-08-24T05:29:08.895Z,98519.88
2022-08-24T05:31:35.289Z,98515.00
2022-08-24T05:34:01.764Z,98523.75
2022-08-24T05:36:29.076Z,98522.13
2022-08-24T05:38:55.899Z,98518.09
2022-08-24T05:41:22.414Z,98508.38
2022-08-24T05:43:49.022Z,98517.97
2022-08-24T05:46:15.598Z,98516.28
2022-08-24T05:48:42.262Z,98518.59
2022-08-24T05:51:08.770Z,98518.03
2022-08-24T05:53:35.299Z,98526.25
2022-08-24T05:56:09.670Z,98526.59
2022-08-24T05:58:37.425Z,98529.41
2022-08-24T06:01:14.028Z,98519.66
2022-08-24T06:03:40.630Z,98528.34
2022-08-24T06:06:08.551Z,98541.94
2022-08-24T06:08:41.390Z,98539.84
2022-08-24T06:11:08.366Z,98539.16
2022-08-24T06:13:35.794Z,98549.53
2022-08-24T06:16:20.389Z,98555.91
2022-08-24T06:18:49.050Z,98554.28
2022-08-24T06:21:16.397Z,98556.22
2022-08-24T06:23:44.167Z,98559.09
2022-08-24T06:26:29.284Z,98563.41
2022-08-24T06:28:55.643Z,98560.75
2022-08-24T06:31:22.255Z,98566.41
2022-08-24T06:33:51.073Z,98558.88
2022-08-24T06:36:17.459Z,98563.44
2022-08-24T06:38:49.249Z,98568.31
2022-08-24T06:41:16.428Z,98565.72
2022-08-24T06:43:42.782Z,98571.53
2022-08-24T06:46:09.293Z,98580.06
2022-08-24T06:48:35.692Z,98575.44
2022-08-24T06:51:02.470Z,98573.00
2022-08-24T06:53:28.918Z,98581.59
2022-08-24T06:55:58.770Z,98583.31
2022-08-24T06:58:25.760Z,98580.38
2022-08-24T07:00:52.118Z,98584.72
2022-08-24T07:03:20.321Z,98596.69
2022-08-24T07:05:52.939Z,98586.91
2022-08-24T07:08:19.776Z,98590.44
2022-08-24T07:10:46.174Z,98601.16
2022-08-24T07:13:13.608Z,98599.50
2022-08-24T07:15:40.528Z,98593.31
2022-08-24T07:18:10.085Z,98593.03
2022-08-24T07:20:36.927Z,98596.09
2022-08-24T07:23:06.357Z,98600.84
2022-08-24T07:25:33.567Z,98604.06
2022-08-24T07:28:01.593Z,98612.25
2022-08-24T07:30:28.161Z,98608.50
2022-08-24T07:32:55.153Z,98604.09
2022-08-24T07:35:22.155Z,98613.22
2022-08-24T07:37:48.512Z,98614.69
2022-08-24T07:40:17.365Z,98622.63
2022-08-24T07:42:47.206Z,98617.34
2022-08-24T07:45:13.811Z,98620.50
2022-08-24T07:47:44.736Z,98622.25
2022-08-24T07:50:16.235Z,98619.84
2022-08-24T07:52:42.789Z,98616.16
2022-08-24T07:55:09.269Z,98622.78
2022-08-24T07:57:35.639Z,98628.28
2022-08-24T08:00:02.206Z,98626.25
2022-08-24T08:02:36.146Z,98628.59
2022-08-24T08:05:02.812Z,98622.47
2022-08-24T08:07:31.024Z,98628.41
2022-08-24T08:09:57.374Z,98639.34
2022-08-24T08:12:23.733Z,98641.53
2022-08-24T08:14:50.085Z,98645.09
2022-08-24T08:17:16.777Z,98637.91
2022-08-24T08:19:43.794Z,98642.88
2022-08-24T08:22:28.836Z,98641.09
2022-08-24T08:24:55.183Z,98638.78
2022-08-24T08:27:21.865Z,98641.22
2022-08-24T08:29:48.958Z,98639.94
2022-08-24T08:32:17.094Z,98647.25
2022-08-24T08:34:43.925Z,98638.31
2022-08-24T08:37:11.161Z,98643.56
2022-08-24T08:39:37.507Z,98640.81
2022-08-24T08:42:22.846Z,98629.88
2022-08-24T08:45:12.873Z,98637.75
2022-08-24T08:47:57.968Z,98636.44
2022-08-24T08:50:34.113Z,98635.16
2022-08-24T08:53:03.687Z,98637.91
2022-08-24T08:55:33.849Z,98639.50
2022-08-24T08:58:08.508Z,98639.31
2022-08-24T09:00:56.141Z,98637.53
2022-08-24T09:03:32.426Z,98645.19
2022-08-24T09:06:05.230Z,98641.53
2022-08-24T09:08:51.886Z,98643.53
2022-08-24T09:11:38.075Z,98638.09
2022-08-24T09:14:09.879Z,98638.84
2022-08-24T09:16:47.284Z,98640.81
2022-08-24T09:19:33.854Z,98639.31
2022-08-24T09:22:13.587Z,98634.06
2022-08-24T09:24:52.206Z,98637.06
2022-08-24T09:27:25.703Z,98631.47
2022-08-24T09:30:04.454Z,98629.19
2022-08-24T09:32:35.517Z,98634.38
2022-08-24T09:35:03.312Z,98633.00
2022-08-24T09:37:32.776Z,98633.59
2022-08-24T09:39:59.478Z,98640.97
2022-08-24T09:42:32.387Z,98638.31
2022-08-24T09:45:17.416Z,98634.88
2022-08-24T09:48:02.527Z,98631.88
2022-08-24T09:50:44.329Z,98636.03
2022-08-24T09:53:29.293Z,98635.25
2022-08-24T09:56:14.398Z,98637.78
2022-08-24T09:58:50.549Z,98636.38
2022-08-24T10:01:20.567Z,98640.59
2022-08-24T10:04:08.357Z,98642.84
2022-08-24T10:06:57.995Z,98634.72
2022-08-24T10:09:43.039Z,98634.84
2022-08-24T10:12:21.762Z,98632.47
2022-08-24T10:15:14.687Z,98628.53
2022-08-24T10:17:42.970Z,98624.66
2022-08-24T10:20:17.032Z,98616.41
2022-08-24T10:22:43.307Z,98620.41
2022-08-24T10:25:28.581Z,98615.69
2022-08-24T10:27:54.862Z,98616.41
2022-08-24T10:30:34.011Z,98624.69
2022-08-24T10:33:03.339Z,98613.72
2022-08-24T10:35:35.169Z,98618.16
2022-08-24T10:38:32.467Z,98610.25
2022-08-24T10:41:05.752Z,98619.72
2022-08-24T10:43:34.917Z,98617.63
2022-08-24T10:46:07.373Z,98614.03
2022-08-24T10:48:34.614Z,98613.34
2022-08-24T10:51:10.005Z,98626.13
2022-08-24T10:53:36.468Z,98623.81
2022-08-24T10:56:08.089Z,98614.34
2022-08-24T10:58:40.942Z,98618.41
2022-08-24T11:01:15.648Z,98610.16
2022-08-24T11:03:50.762Z,98622.84
2022-08-24T11:06:17.476Z,98613.25
2022-08-24T11:09:00.656Z,98605.59
2022-08-24T11:11:31.439Z,98608.31
2022-08-24T11:14:02.212Z,98614.41
2022-08-24T11:16:38.815Z,98615.38
2022-08-24T11:19:07.369Z,98617.59
2022-08-24T11:21:33.813Z,98610.25
2022-08-24T11:24:04.095Z,98611.50
2022-08-24T11:26:30.473Z,98624.22
2022-08-24T11:29:01.051Z,98631.88
2022-08-24T11:31:35.962Z,98620.56
2022-08-24T11:34:03.905Z,98618.25
2022-08-24T11:36:32.637Z,98609.13
2022-08-24T11:39:12.166Z,98615.34
2022-08-24T11:41:43.266Z,98614.44
2022-08-24T11:44:09.549Z,98609.38
2022-08-24T11:46:51.700Z,98607.19
2022-08-24T11:49:26.837Z,98602.97
2022-08-24T11:51:53.127Z,98605.03
2022-08-24T11:54:30.136Z,98605.13
2022-08-24T11:57:10.804Z,98605.72
2022-08-24T11:59:39.550Z,98597.72
2022-08-24T12:02:08.446Z,98600.69
2022-08-24T12:04:41.483Z,98606.53
2022-08-24T12:07:11.686Z,98608.69
2022-08-24T12:09:53.282Z,98607.00
2022-08-24T12:12:32.133Z,98614.13
2022-08-24T12:15:05.786Z,98613.94
2022-08-24T12:17:50.538Z,98607.19
2022-08-24T12:20:27.191Z,98605.75
2022-08-24T12:22:54.266Z,98601.63
2022-08-24T12:25:39.369Z,98601.00
2022-08-24T12:28:05.988Z,98603.72
2022-08-24T12:30:32.463Z,98609.47
2022-08-24T12:33:00.558Z,98607.22
2022-08-24T12:35:31.571Z,98605.25
2022-08-24T12:38:04.352Z,98604.88
2022-08-24T12:40:40.059Z,98598.63
2022-08-24T12:43:08.618Z,98603.03
2022-08-24T12:45:35.409Z,98606.78
2022-08-24T12:48:15.498Z,98597.13
2022-08-24T12:51:00.523Z,98600.94
2022-08-24T12:53:36.204Z,98597.28
2022-08-24T12:56:07.384Z,98589.72
2022-08-24T12:58:53.798Z,98591.16
2022-08-24T13:01:21.296Z,98596.47
2022-08-24T13:04:03.422Z,98590.16
2022-08-24T13:06:37.891Z,98596.31
2022-08-24T13:09:05.674Z,98586.13
2022-08-24T13:11:33.257Z,98593.81
2022-08-24T13:14:12.555Z,98582.97
2022-08-24T13:16:44.912Z,98599.22
2022-08-24T13:19:16.579Z,98592.66
2022-08-24T13:21:44.539Z,98593.88
2022-08-24T13:24:29.641Z,98584.44
2022-08-24T13:26:56.700Z,98588.88
2022-08-24T13:29:25.322Z,98584.75
2022-08-24T13:31:52.426Z,98586.53
2022-08-24T13:34:20.775Z,98589.69
2022-08-24T13:36:49.009Z,98590.16
2022-08-24T13:39:20.901Z,98585.84
2022-08-24T13:41:49.478Z,98572.19
2022-08-24T13:44:19.176Z,98568.13
2022-08-24T13:46:54.804Z,98567.72
2022-08-24T13:49:30.053Z,98568.75
2022-08-24T13:52:04.658Z,98566.97
2022-08-24T13:54:45.346Z,98564.88
2022-08-24T13:57:19.708Z,98576.41
2022-08-24T13:59:52.532Z,98570.31
2022-08-24T14:02:34.067Z,98567.91
2022-08-24T14:05:09.387Z,98580.63
2022-08-24T14:07:48.089Z,98579.94
2022-08-24T14:10:23.164Z,98578.97
2022-08-24T14:12:52.591Z,98572.19
2022-08-24T14:15:25.111Z,98571.53
2022-08-24T14:17:58.173Z,98571.69
2022-08-24T14:20:27.748Z,98572.94
2022-08-24T14:23:00.439Z,98565.91
2022-08-24T14:25:30.269Z,98575.78
2022-08-24T14:27:59.773Z,98562.13
2022-08-24T14:30:26.108Z,98560.19
2022-08-24T14:32:58.538Z,98559.59
2022-08-24T14:35:31.201Z,98552.44
2022-08-24T14:38:01.559Z,98557.06
2022-08-24T14:40:37.283Z,98550.84
2022-08-24T14:43:16.098Z,98547.66
2022-08-24T14:46:01.265Z,98554.69
2022-08-24T14:48:33.429Z,98548.09
2022-08-24T14:50:59.735Z,98549.91
2022-08-24T14:53:26.102Z,98534.97
2022-08-24T14:56:01.904Z,98546.22
2022-08-24T14:58:32.479Z,98537.75
2022-08-24T15:01:05.088Z,98541.91
2022-08-24T15:03:34.630Z,98541.91
2022-08-24T15:06:25.822Z,98537.13
2022-08-24T15:08:49.870Z,98540.38
2022-08-24T15:11:18.229Z,98539.03
2022-08-24T15:13:48.976Z,98541.59
2022-08-24T15:16:34.624Z,98543.06
2022-08-24T15:19:04.502Z,98538.06
2022-08-24T15:21:34.448Z,98531.03
2022-08-24T15:24:08.056Z,98533.16
2022-08-24T15:26:45.238Z,98525.84
2022-08-24T15:29:15.743Z,98528.38
2022-08-24T15:31:42.323Z,98526.13
2022-08-24T15:34:08.917Z,98518.84
2022-08-24T15:36:35.332Z,98521.22
2022-08-24T15:39:02.039Z,98510.28
2022-08-24T15:41:32.265Z,98519.50
2022-08-24T15:44:01.396Z,98513.31
2022-08-24T15:46:42.537Z,98511.69
2022-08-24T15:49:17.179Z,98512.00
2022-08-24T15:51:43.533Z,98512.97
2022-08-24T15:54:31.402Z,98515.03
2022-08-24T15:56:59.426Z,98504.53
2022-08-24T15:59:28.250Z,98519.63
2022-08-24T16:02:29.865Z,98510.25
2022-08-24T16:05:14.841Z,98509.78
2022-08-24T16:07:57.299Z,98509.91
2022-08-24T16:10:30.934Z,98519.00
2022-08-24T16:13:07.462Z,98513.41
2022-08-24T16:15:33.829Z,98515.31
2022-08-24T16:18:00.287Z,98513.72
2022-08-24T16:20:26.632Z,98516.25
2022-08-24T16:23:00.275Z,98514.34
2022-08-24T16:25:28.507Z,98513.03
2022-08-24T16:28:03.398Z,98509.34
2022-08-24T16:30:46.683Z,98515.34
2022-08-24T16:33:31.237Z,98511.03
2022-08-24T16:35:58.945Z,98518.97
2022-08-24T16:38:27.950Z,98520.69
2022-08-24T16:40:55.561Z,98515.94
2022-08-24T16:43:21.919Z,98525.88
2022-08-24T16:45:48.316Z,98520.78
2022-08-24T16:48:14.695Z,98525.88
2022-08-24T16:50:41.056Z,98527.25
2022-08-24T16:53:07.482Z,98521.81
2022-08-24T16:55:33.833Z,98525.88
2022-08-24T16:58:01.498Z,98526.28
2022-08-24T17:00:28.574Z,98519.72
2022-08-24T17:02:55.198Z,98524.44
2022-08-24T17:05:22.036Z,98523.59
2022-08-24T17:07:50.210Z,98527.63
2022-08-24T17:10:17.062Z,98529.09
2022-08-24T17:12:43.564Z,98535.94
2022-08-24T17:15:11.684Z,98529.38
2022-08-24T17:17:38.355Z,98531.44
2022-08-24T17:20:06.869Z,98530.31
2022-08-24T17:22:33.449Z,98531.16
2022-08-24T17:25:01.732Z,98534.53
2022-08-24T17:27:29.186Z,98529.22
2022-08-24T17:29:55.586Z,98536.88
2022-08-24T17:32:21.936Z,98531.16
2022-08-24T17:34:48.347Z,98538.78
2022-08-24T17:37:14.948Z,98536.75
2022-08-24T17:39:41.337Z,98539.38
2022-08-24T17:42:22.291Z,98542.25
2022-08-24T17:44:54.924Z,98547.38
2022-08-24T17:47:22.044Z,98544.06
2022-08-24T17:49:48.413Z,98549.75
2022-08-24T17:52:14.778Z,98544.25
2022-08-24T17:54:41.147Z,98548.44
2022-08-24T17:57:07.487Z,98548.63
2022-08-24T17:59:34.881Z,98555.09
2022-08-24T18:02:12.322Z,98551.19
2022-08-24T18:04:38.708Z,98556.69
2022-08-24T18:07:09.596Z,98557.00
2022-08-24T18:09:41.434Z,98558.47
2022-08-24T18:12:07.880Z,98562.09
2022-08-24T18:14:34.627Z,98561.81
2022-08-24T18:17:05.339Z,98559.78
2022-08-24T18:19:32.217Z,98555.97
2022-08-24T18:21:58.585Z,98555.84
2022-08-24T18:24:25.764Z,98566.25
2022-08-24T18:26:52.571Z,98568.16
2022-08-24T18:29:19.232Z,98570.38
2022-08-24T18:32:03.007Z,98572.59
2022-08-24T18:34:36.189Z,98579.44
2022-08-24T18:37:12.109Z,98577.47
2022-08-24T18:39:38.573Z,98581.59
2022-08-24T18:42:05.375Z,98590.63
2022-08-24T18:44:31.997Z,98590.50
2022-08-24T18:46:58.448Z,98593.88
2022-08-24T18:49:24.870Z,98591.94
2022-08-24T18:51:51.405Z,98584.31
2022-08-24T18:54:29.350Z,98595.91
2022-08-24T18:56:55.805Z,98599.41
2022-08-24T18:59:22.191Z,98598.31
2022-08-24T19:02:07.597Z,98601.41
2022-08-24T19:04:34.070Z,98599.19
2022-08-24T19:07:02.792Z,98604.66
2022-08-24T19:09:33.935Z,98607.13
2022-08-24T19:12:00.785Z,98609.09
2022-08-24T19:14:27.145Z,98615.06
2022-08-24T19:16:53.500Z,98605.34
2022-08-24T19:19:22.264Z,98611.72
2022-08-24T19:21:48.892Z,98616.31
2022-08-24T19:24:15.251Z,98617.09
2022-08-24T19:26:41.616Z,98611.63
2022-08-24T19:29:08.085Z,98617.53
2022-08-24T19:31:34.654Z,98618.41
2022-08-24T19:34:03.662Z,98614.53
2022-08-24T19:36:30.272Z,98617.81
2022-08-24T19:38:56.635Z,98627.25
2022-08-24T19:41:23.380Z,98622.97
2022-08-24T19:44:27.206Z,98616.88
2022-08-24T19:46:54.259Z,98620.38
2022-08-24T19:49:20.917Z,98621.69
2022-08-24T19:51:47.273Z,98615.72
2022-08-24T19:54:13.614Z,98622.66
2022-08-24T19:56:39.975Z,98626.09
2022-08-24T19:59:07.129Z,98616.50
2022-08-24T20:01:35.061Z,98623.69
2022-08-24T20:04:02.229Z,98621.41
2022-08-24T20:06:29.210Z,98621.91
2022-08-24T20:08:55.584Z,98620.22
2022-08-24T20:11:25.311Z,98627.72
2022-08-24T20:13:51.889Z,98623.09
2022-08-24T20:16:19.092Z,98618.25
2022-08-24T20:18:45.546Z,98630.69
2022-08-24T20:21:16.004Z,98617.50
2022-08-24T20:23:42.782Z,98620.41
2022-08-24T20:26:09.209Z,98620.19
2022-08-24T20:28:55.976Z,98629.66
2022-08-24T20:31:28.039Z,98632.25
2022-08-24T20:33:55.253Z,98622.31
2022-08-24T20:36:23.992Z,98621.63
2022-08-24T20:38:51.163Z,98622.81
2022-08-24T20:41:17.564Z,98622.16
2022-08-24T20:43:45.001Z,98625.91
2022-08-24T20:46:11.383Z,98633.94
2022-08-24T20:48:41.889Z,98630.25
2022-08-24T20:51:09.624Z,98624.19
2022-08-24T20:53:35.983Z,98632.97
2022-08-24T20:56:03.535Z,98628.16
2022-08-24T20:58:29.899Z,98632.22
2022-08-24T21:00:56.480Z,98633.06
2022-08-24T21:03:23.305Z,98630.44
2022-08-24T21:05:52.408Z,98634.16
2022-08-24T21:08:19.258Z,98626.03
2022-08-24T21:10:45.685Z,98628.09
2022-08-24T21:13:12.033Z,98632.22
2022-08-24T21:15:38.431Z,98631.34
2022-08-24T21:18:05.120Z,98629.00
2022-08-24T21:20:32.647Z,98636.72
2022-08-24T21:22:59.022Z,98634.31
2022-08-24T21:25:25.686Z,98642.31
2022-08-24T21:27:52.077Z,98636.66
2022-08-24T21:30:19.449Z,98647.97
2022-08-24T21:33:04.741Z,98634.28
2022-08-24T21:35:31.251Z,98633.94
2022-08-24T21:37:59.018Z,98630.72
2022-08-24T21:40:25.455Z,98636.84
2022-08-24T21:42:51.891Z,98627.63
2022-08-24T21:45:18.359Z,98625.19
2022-08-24T21:47:44.910Z,98623.97
2022-08-24T21:50:11.434Z,98624.44
2022-08-24T21:52:38.991Z,98631.25
2022-08-24T21:55:11.732Z,98624.84
2022-08-24T21:57:41.126Z,98633.03
2022-08-24T22:00:09.159Z,98634.66
2022-08-24T22:02:35.534Z,98632.22
2022-08-24T22:05:01.927Z,98638.28
2022-08-24T22:07:28.334Z,98640.38
2022-08-24T22:09:55.110Z,98639.19
2022-08-24T22:12:21.478Z,98644.88
2022-08-24T22:14:47.838Z,98640.34
2022-08-24T22:17:14.197Z,98635.19
2022-08-24T22:19:40.543Z,98637.16
2022-08-24T22:22:07.218Z,98642.44
2022-08-24T22:24:33.608Z,98637.31
2022-08-24T22:26:59.963Z,98632.59
2022-08-24T22:29:26.612Z,98630.66
2022-08-24T22:31:53.012Z,98629.38
2022-08-24T22:34:20.663Z,98623.75
2022-08-24T22:36:47.495Z,98615.34
2022-08-24T22:39:13.921Z,98614.66
2022-08-24T22:41:40.493Z,98605.75
2022-08-24T22:44:18.997Z,98606.22
2022-08-24T22:46:45.825Z,98611.56
2022-08-24T22:49:12.292Z,98604.03
2022-08-24T22:51:38.954Z,98606.34
2022-08-24T22:54:05.312Z,98602.00
2022-08-24T22:56:33.218Z,98604.06
2022-08-24T22:59:01.694Z,98603.53
2022-08-24T23:01:29.051Z,98601.38
2022-08-24T23:03:55.782Z,98599.00
2022-08-24T23:06:22.247Z,98595.00
2022-08-24T23:08:48.614Z,98602.34
2022-08-24T23:11:14.983Z,98595.22
2022-08-24T23:13:41.558Z,98598.94
2022-08-24T23:16:08.641Z,98590.94
2022-08-24T23:18:53.895Z,98597.75
2022-08-24T23:21:20.267Z,98600.16
2022-08-24T23:23:46.629Z,98597.78
2022-08-24T23:26:18.408Z,98596.66
2022-08-24T23:28:45.282Z,98598.44
2022-08-24T23:31:16.325Z,98595.25
2022-08-24T23:33:42.926Z,98591.22
2022-08-24T23:36:10.907Z,98588.31
2022-08-24T23:38:37.255Z,98593.97
2022-08-24T23:41:07.033Z,98593.84
2022-08-24T23:43:36.623Z,98591.03
2022-08-24T23:46:03.342Z,98589.13
2022-08-24T23:48:29.805Z,98591.53
2022-08-24T23:50:56.225Z,98598.00
2022-08-24T23:53:23.793Z,98593.22
2022-08-24T23:55:50.545Z,98582.44
2022-08-24T23:58:16.919Z,98580.03
